Time;durP1;ratioP1;P1;durP2;ratioP2;P2;SDS_P1;SDS_P2;PMS_P1;PMS_P2;Temp;Humidity;BMP_temperature;BMP_pressure;BME280_temperature;BME280_humidity;BME280_pressure;Samples;Min_cycle;Max_cycle;Signal;HPM_P1;HPM_P2
2021/03/05 00:00:33;;;;;;;17.90;9.25;;;;;;;6.86;75.70;96504.78;5032776;28;20048;-76
2021/03/05 00:02:59;;;;;;;14.73;8.65;;;;;;;6.87;75.74;96508.22;5036270;28;20033;-76
2021/03/05 00:05:26;;;;;;;12.88;7.75;;;;;;;6.87;75.86;96511.63;5036964;28;20389;-76
2021/03/05 00:07:53;;;;;;;14.23;8.88;;;;;;;6.87;75.92;96511.63;5036980;28;20033;-76
2021/03/05 00:10:25;;;;;;;15.45;8.93;;;;;;;6.87;76.19;96508.22;5037073;28;20033;-76
2021/03/05 00:12:52;;;;;;;14.68;8.70;;;;;;;6.87;75.75;96508.22;5036866;28;20037;-76
2021/03/05 00:15:22;;;;;;;13.23;8.90;;;;;;;6.87;76.22;96514.25;5004209;28;20037;-76
2021/03/05 00:17:49;;;;;;;16.73;9.20;;;;;;;6.89;75.99;96514.06;5037002;28;20061;-76
2021/03/05 00:20:19;;;;;;;16.63;9.02;;;;;;;6.89;76.18;96514.06;5035653;28;20048;-76
2021/03/05 00:22:45;;;;;;;12.75;8.50;;;;;;;6.91;76.06;96514.66;5035939;28;20064;-76
2021/03/05 00:25:12;;;;;;;14.70;9.15;;;;;;;6.90;76.01;96521.66;5036348;28;20165;-76
2021/03/05 00:27:38;;;;;;;15.52;9.07;;;;;;;6.90;76.13;96520.88;5036801;28;20396;-76
2021/03/05 00:30:08;;;;;;;14.75;9.00;;;;;;;6.90;76.40;96518.25;5036779;28;20050;-76
2021/03/05 00:32:35;;;;;;;14.80;10.13;;;;;;;6.87;76.39;96529.09;5036117;28;20041;-76
2021/03/05 00:35:04;;;;;;;13.07;8.38;;;;;;;6.87;76.50;96523.88;5036595;28;20061;-77
2021/03/05 00:37:31;;;;;;;12.30;7.93;;;;;;;6.86;76.49;96527.47;5036765;28;20053;-76
2021/03/05 00:39:57;;;;;;;14.15;9.18;;;;;;;6.85;76.67;96518.84;5036607;28;20497;-76
2021/03/05 00:42:23;;;;;;;12.65;8.85;;;;;;;6.86;76.67;96524.84;5035859;28;20497;-76
2021/03/05 00:44:50;;;;;;;16.80;9.75;;;;;;;6.85;76.82;96521.44;5036226;28;20045;-76
2021/03/05 00:47:16;;;;;;;16.92;10.40;;;;;;;6.84;76.67;96521.63;5036544;28;20041;-76
2021/03/05 00:49:43;;;;;;;16.33;10.65;;;;;;;6.81;76.92;96517.63;5036728;28;20048;-76
2021/03/05 00:52:09;;;;;;;14.70;10.15;;;;;;;6.76;76.77;96511.34;5036361;28;20048;-76
2021/03/05 00:54:35;;;;;;;16.65;10.38;;;;;;;6.73;76.82;96519.56;5036056;28;20040;-77
2021/03/05 00:57:01;;;;;;;18.55;11.25;;;;;;;6.69;76.93;96524.34;5018842;28;20037;-76
2021/03/05 00:59:27;;;;;;;18.27;11.82;;;;;;;6.63;76.78;96527.72;5036318;28;20060;-76
2021/03/05 01:01:54;;;;;;;16.70;12.05;;;;;;;6.55;76.72;96518.28;5034907;28;20038;-76
2021/03/05 01:04:20;;;;;;;19.27;12.23;;;;;;;6.56;77.18;96526.88;5036207;28;20036;-76
2021/03/05 01:06:46;;;;;;;21.27;13.95;;;;;;;6.50;76.99;96529.25;5036275;28;20124;-76
2021/03/05 01:09:12;;;;;;;19.98;12.95;;;;;;;6.46;76.91;96532.41;5020896;28;20037;-76
2021/03/05 01:11:38;;;;;;;20.00;13.27;;;;;;;6.42;77.28;96539.00;5035509;28;20042;-77
2021/03/05 01:14:05;;;;;;;19.52;13.35;;;;;;;6.36;77.43;96543.16;5035276;28;20041;-77
2021/03/05 01:16:31;;;;;;;17.45;11.52;;;;;;;6.20;76.57;96546.84;5036317;28;20033;-76
2021/03/05 01:18:57;;;;;;;18.55;11.50;;;;;;;5.86;76.09;96550.13;5036073;28;20508;-76
2021/03/05 01:21:24;;;;;;;18.60;11.80;;;;;;;5.56;76.12;96552.78;5035628;28;20049;-76
2021/03/05 01:23:50;;;;;;;17.67;12.25;;;;;;;5.30;76.47;96558.50;5035909;28;20034;-76
2021/03/05 01:26:16;;;;;;;19.67;12.90;;;;;;;5.05;76.91;96550.19;5035751;28;20040;-76
2021/03/05 01:28:45;;;;;;;19.00;12.35;;;;;;;4.90;77.09;96552.00;5035941;28;20394;-76
2021/03/05 01:31:15;;;;;;;19.63;12.98;;;;;;;4.78;77.71;96556.81;5035586;28;20398;-76
2021/03/05 01:33:42;;;;;;;17.05;11.13;;;;;;;4.72;77.62;96550.53;5035036;28;20053;-76
2021/03/05 01:36:09;;;;;;;19.85;11.38;;;;;;;4.63;77.49;96559.41;5035909;28;20045;-76
2021/03/05 01:38:37;;;;;;;19.92;12.40;;;;;;;4.51;77.39;96551.22;5035253;28;20045;-76
2021/03/05 01:41:03;;;;;;;22.27;12.63;;;;;;;4.41;77.68;96555.84;5035618;28;20048;-76
2021/03/05 01:43:32;;;;;;;21.45;12.55;;;;;;;4.32;77.63;96560.31;5034334;28;20441;-76
2021/03/05 01:45:59;;;;;;;23.35;13.45;;;;;;;4.24;78.15;96556.03;5017716;28;20040;-76
2021/03/05 01:48:26;;;;;;;21.55;12.73;;;;;;;4.20;78.20;96561.72;5035394;28;20044;-76
2021/03/05 01:51:06;;;;;;;24.00;14.35;;;;;;;4.18;79.14;96563.66;5035485;28;20493;-76
2021/03/05 01:53:32;;;;;;;25.25;14.77;;;;;;;4.13;78.65;96566.00;5035187;28;20057;-76
2021/03/05 01:56:00;;;;;;;25.67;15.10;;;;;;;4.01;78.46;96569.00;5035157;28;20041;-76
2021/03/05 01:58:26;;;;;;;25.60;14.90;;;;;;;3.94;78.67;96573.25;5034985;28;20461;-76
2021/03/05 02:00:56;;;;;;;25.10;14.35;;;;;;;3.94;79.40;96575.84;5035383;28;20041;-76
2021/03/05 02:03:22;;;;;;;27.27;14.65;;;;;;;3.97;78.63;96585.06;5035010;28;20389;-76
2021/03/05 02:05:48;;;;;;;28.23;15.00;;;;;;;3.90;78.22;96591.94;5034851;28;20045;-76
2021/03/05 02:08:15;;;;;;;27.70;14.65;;;;;;;3.78;78.12;96586.31;5035166;28;20054;-76
2021/03/05 02:10:41;;;;;;;26.70;15.50;;;;;;;3.69;78.21;96590.75;5034730;28;20048;-76
2021/03/05 02:13:08;;;;;;;27.58;15.20;;;;;;;3.60;78.65;96584.00;5034941;28;20416;-76
2021/03/05 02:15:37;;;;;;;28.90;15.73;;;;;;;3.57;78.81;96592.13;5034579;28;20046;-76
2021/03/05 02:18:23;;;;;;;32.92;16.98;;;;;;;3.49;78.62;96599.97;5034666;28;20369;-76
2021/03/05 02:21:07;;;;;;;36.50;19.17;;;;;;;3.43;78.75;96601.44;5023250;28;20029;-76
2021/03/05 02:24:02;;;;;;;32.58;17.40;;;;;;;3.40;79.55;96609.53;5025612;28;20040;-76
2021/03/05 02:26:54;;;;;;;35.55;18.02;;;;;;;3.35;79.07;96604.06;5016718;28;20399;-76
2021/03/05 02:29:58;;;;;;;38.92;19.50;;;;;;;3.34;79.93;96599.84;5033661;28;20052;-76
2021/03/05 02:32:28;;;;;;;36.85;20.15;;;;;;;3.38;79.13;96599.34;5025227;28;20038;-76
2021/03/05 02:34:55;;;;;;;40.50;20.52;;;;;;;3.41;79.17;96595.63;5035013;28;20053;-76
2021/03/05 02:37:25;;;;;;;41.28;22.58;;;;;;;3.42;79.13;96595.44;5034972;28;20049;-76
2021/03/05 02:40:00;;;;;;;43.35;22.48;;;;;;;3.41;79.17;96600.78;5034259;28;20383;-76
2021/03/05 02:42:49;;;;;;;40.63;19.92;;;;;;;3.42;79.83;96603.22;5034316;28;20037;-76
2021/03/05 02:45:18;;;;;;;41.63;21.85;;;;;;;3.34;79.18;96592.88;5034452;28;20470;-76
2021/03/05 02:47:48;;;;;;;42.53;21.20;;;;;;;3.28;78.91;96595.34;5033941;28;20044;-76
2021/03/05 02:50:17;;;;;;;39.53;19.92;;;;;;;3.22;79.14;96602.81;5029884;28;20466;-76
2021/03/05 02:52:46;;;;;;;41.83;21.70;;;;;;;3.20;79.43;96606.53;5034250;28;20409;-76
2021/03/05 02:55:13;;;;;;;38.40;20.65;;;;;;;3.18;79.40;96609.28;5034236;28;20033;-76
2021/03/05 02:57:46;;;;;;;36.10;20.05;;;;;;;3.15;79.75;96607.06;5033577;28;20049;-76
2021/03/05 03:00:14;;;;;;;34.67;19.20;;;;;;;3.13;79.29;96608.16;5033862;28;20033;-76
2021/03/05 03:02:41;;;;;;;36.35;19.20;;;;;;;3.07;79.44;96611.44;5033776;28;20049;-76
2021/03/05 03:05:10;;;;;;;39.45;19.80;;;;;;;3.04;79.48;96616.00;5034021;28;20045;-76
2021/03/05 03:07:58;;;;;;;36.75;18.60;;;;;;;3.03;79.49;96624.72;5009894;28;20144;-77
2021/03/05 03:10:28;;;;;;;36.80;20.55;;;;;;;2.99;79.54;96630.41;5034273;28;20037;-76
2021/03/05 03:12:58;;;;;;;36.75;18.70;;;;;;;2.92;79.43;96627.69;5033884;28;20075;-76
2021/03/05 03:15:27;;;;;;;38.50;20.30;;;;;;;2.87;79.56;96629.94;5033558;28;20064;-76
2021/03/05 03:17:55;;;;;;;39.38;20.25;;;;;;;2.83;79.79;96626.88;5033790;28;20045;-76
2021/03/05 03:20:23;;;;;;;40.05;21.20;;;;;;;2.80;79.44;96631.56;5033650;28;20041;-76
2021/03/05 03:22:49;;;;;;;36.15;19.40;;;;;;;2.74;79.64;96640.00;5033002;28;20045;-76
2021/03/05 03:25:15;;;;;;;37.97;20.63;;;;;;;2.70;79.66;96644.69;5033378;28;20049;-76
2021/03/05 03:27:42;;;;;;;32.50;18.02;;;;;;;2.68;79.88;96651.00;5033913;28;20037;-76
2021/03/05 03:30:11;;;;;;;29.60;17.05;;;;;;;2.64;79.91;96653.09;5033761;28;20393;-76
2021/03/05 03:32:39;;;;;;;31.55;17.38;;;;;;;2.62;79.68;96663.66;5033503;28;20458;-76
2021/03/05 03:35:07;;;;;;;33.45;17.35;;;;;;;2.58;79.81;96661.53;5033519;28;20493;-76
2021/03/05 03:37:35;;;;;;;37.38;18.23;;;;;;;2.53;79.76;96658.63;5033959;28;20439;-76
2021/03/05 03:40:05;;;;;;;36.28;18.42;;;;;;;2.48;80.23;96659.13;5033343;28;20040;-76
2021/03/05 03:42:31;;;;;;;39.42;20.05;;;;;;;2.44;80.21;96657.81;5033383;28;20048;-77
2021/03/05 03:44:57;;;;;;;38.20;20.10;;;;;;;2.42;80.40;96663.16;5033307;28;20033;-76
2021/03/05 03:47:24;;;;;;;38.20;19.75;;;;;;;2.41;80.36;96664.09;5033063;28;20046;-76
2021/03/05 03:49:53;;;;;;;35.28;19.25;;;;;;;2.43;80.58;96656.19;5033375;28;20037;-76
2021/03/05 03:52:27;;;;;;;38.25;19.17;;;;;;;2.46;80.72;96668.81;5033233;28;20029;-76
2021/03/05 03:54:56;;;;;;;38.50;20.85;;;;;;;2.46;80.45;96662.81;5022390;28;20406;-76
2021/03/05 03:57:23;;;;;;;35.88;19.67;;;;;;;2.44;80.27;96658.63;5033328;28;20040;-76
2021/03/05 03:59:51;;;;;;;39.35;19.98;;;;;;;2.44;80.63;96668.16;5032600;28;20045;-77
2021/03/05 04:02:24;;;;;;;38.40;18.77;;;;;;;2.43;80.40;96664.75;5032951;28;20049;-77
2021/03/05 04:04:50;;;;;;;36.92;19.52;;;;;;;2.41;80.55;96671.06;5033606;28;20046;-76
2021/03/05 04:07:20;;;;;;;33.65;16.77;;;;;;;2.43;80.59;96671.72;5033075;28;20417;-77
2021/03/05 04:09:47;;;;;;;39.05;18.75;;;;;;;2.40;80.31;96678.03;5033431;28;20041;-76
2021/03/05 04:12:14;;;;;;;38.30;18.92;;;;;;;2.37;80.34;96674.94;5033229;28;20044;-77
2021/03/05 04:14:41;;;;;;;35.40;17.77;;;;;;;2.36;80.55;96684.50;5032976;28;20037;-76
2021/03/05 04:17:07;;;;;;;32.38;17.63;;;;;;;2.37;80.61;96674.94;5033178;28;20390;-76
2021/03/05 04:19:33;;;;;;;33.22;17.85;;;;;;;2.37;80.75;96673.19;5032656;28;20040;-77
2021/03/05 04:22:01;;;;;;;34.97;16.52;;;;;;;2.35;80.55;96675.13;5032759;28;20033;-76
2021/03/05 04:24:27;;;;;;;35.20;18.23;;;;;;;2.35;80.55;96676.88;5033028;28;20033;-76
2021/03/05 04:26:53;;;;;;;31.08;16.08;;;;;;;2.34;80.59;96683.03;5033233;28;20397;-76
2021/03/05 04:29:19;;;;;;;30.63;16.98;;;;;;;2.31;80.58;96679.00;5032809;28;20049;-76
2021/03/05 04:31:45;;;;;;;29.75;16.65;;;;;;;2.34;80.84;96673.50;5033428;28;20044;-76
2021/03/05 04:34:11;;;;;;;27.83;16.02;;;;;;;2.36;80.86;96681.91;5032702;28;20045;-76
2021/03/05 04:36:38;;;;;;;28.85;15.73;;;;;;;2.40;80.62;96682.41;5033206;28;20058;-77
2021/03/05 04:39:05;;;;;;;28.67;15.48;;;;;;;2.44;80.74;96678.53;5033001;28;20052;-76
2021/03/05 04:41:31;;;;;;;25.30;13.35;;;;;;;2.47;80.48;96679.97;5032692;28;20470;-76
2021/03/05 04:43:58;;;;;;;25.88;14.23;;;;;;;2.43;80.46;96676.88;5032022;28;20049;-76
2021/03/05 04:46:25;;;;;;;23.73;13.95;;;;;;;2.41;80.57;96684.00;5033137;28;20406;-76
2021/03/05 04:48:52;;;;;;;23.65;13.55;;;;;;;2.40;80.58;96693.56;5035110;28;20393;-76
2021/03/05 04:51:18;;;;;;;23.63;12.63;;;;;;;2.40;80.58;96692.75;5036375;28;20041;-76
2021/03/05 04:53:44;;;;;;;26.35;13.73;;;;;;;2.36;80.73;96691.47;5036319;28;20037;-76
2021/03/05 04:56:10;;;;;;;23.80;13.85;;;;;;;2.33;80.60;96691.75;5036341;28;20413;-76
2021/03/05 04:58:36;;;;;;;25.85;13.57;;;;;;;2.34;80.52;96696.78;5036264;28;20041;-76
2021/03/05 05:01:03;;;;;;;28.55;14.88;;;;;;;2.35;80.62;96702.75;5036162;28;20033;-76
2021/03/05 05:03:29;;;;;;;28.95;14.90;;;;;;;2.33;80.75;96707.28;5036109;28;20040;-77
2021/03/05 05:05:55;;;;;;;33.30;16.27;;;;;;;2.27;80.36;96703.56;5035767;28;20069;-77
2021/03/05 05:08:21;;;;;;;29.70;16.10;;;;;;;2.26;80.73;96704.53;5036004;28;20030;-76
2021/03/05 05:10:47;;;;;;;29.98;16.65;;;;;;;2.27;80.65;96701.00;5035850;28;20060;-77
2021/03/05 05:13:13;;;;;;;35.33;17.58;;;;;;;2.24;80.72;96702.09;5035767;28;20823;-77
2021/03/05 05:15:39;;;;;;;28.23;15.73;;;;;;;2.24;80.78;96704.69;5036191;28;20397;-76
2021/03/05 05:18:06;;;;;;;30.70;16.60;;;;;;;2.29;80.80;96705.97;5035770;28;20038;-77
2021/03/05 05:20:33;;;;;;;28.80;15.98;;;;;;;2.29;80.68;96700.81;5036113;28;20032;-76
2021/03/05 05:22:59;;;;;;;26.25;14.68;;;;;;;2.30;80.73;96707.63;5035828;28;20041;-76
2021/03/05 05:25:25;;;;;;;27.88;15.70;;;;;;;2.40;80.73;96718.63;5035909;28;20040;-77
2021/03/05 05:27:51;;;;;;;30.75;15.85;;;;;;;2.46;80.83;96722.34;5035578;28;20458;-76
2021/03/05 05:30:18;;;;;;;26.95;15.07;;;;;;;2.51;80.79;96714.94;5036028;28;20029;-77
2021/03/05 05:32:44;;;;;;;26.73;15.23;;;;;;;2.51;80.48;96720.91;5035735;28;20048;-77
2021/03/05 05:35:10;;;;;;;28.33;16.25;;;;;;;2.50;80.20;96721.88;5024905;28;20053;-77
2021/03/05 05:37:38;;;;;;;32.05;16.90;;;;;;;2.46;80.13;96718.00;5035327;28;20045;-77
2021/03/05 05:40:05;;;;;;;29.35;16.42;;;;;;;2.44;80.50;96722.53;5035307;28;20048;-77
2021/03/05 05:42:31;;;;;;;33.17;16.83;;;;;;;2.43;80.52;96726.06;5035358;28;20041;-77
2021/03/05 05:44:57;;;;;;;28.88;15.90;;;;;;;2.41;80.48;96725.41;5035509;28;20038;-77
2021/03/05 05:47:24;;;;;;;32.50;17.48;;;;;;;2.37;80.26;96724.94;5035444;28;20040;-77
2021/03/05 05:49:55;;;;;;;34.17;17.95;;;;;;;2.34;80.49;96729.63;5035267;28;20029;-77
2021/03/05 05:52:25;;;;;;;30.10;16.88;;;;;;;2.28;80.39;96732.84;5017841;28;20470;-76
2021/03/05 05:54:55;;;;;;;34.90;17.05;;;;;;;2.27;80.50;96732.03;5035000;28;20501;-77
2021/03/05 05:57:23;;;;;;;37.15;18.58;;;;;;;2.32;80.72;96722.00;5034965;28;20397;-77
2021/03/05 05:59:49;;;;;;;32.72;17.92;;;;;;;2.30;80.40;96725.72;5033845;28;20044;-77
2021/03/05 06:02:16;;;;;;;37.72;19.50;;;;;;;2.23;80.20;96733.31;5017253;28;20038;-76
2021/03/05 06:04:44;;;;;;;35.83;18.80;;;;;;;2.22;80.48;96740.25;5035045;28;20045;-77
2021/03/05 06:07:12;;;;;;;35.60;19.45;;;;;;;2.21;80.50;96737.84;5034838;28;20048;-76
2021/03/05 06:09:38;;;;;;;37.28;18.83;;;;;;;2.16;80.29;96740.91;5023017;28;20033;-77
2021/03/05 06:12:14;;;;;;;41.10;20.20;;;;;;;2.13;80.64;96750.75;5034284;28;20037;-76
2021/03/05 06:14:41;;;;;;;34.03;18.05;;;;;;;2.08;80.40;96751.22;5034820;28;20040;-76
2021/03/05 06:17:07;;;;;;;36.85;18.15;;;;;;;2.10;80.70;96758.81;5034667;28;20029;-76
2021/03/05 06:19:34;;;;;;;36.95;18.55;;;;;;;2.11;80.54;96756.09;5034489;28;20033;-76
2021/03/05 06:22:01;;;;;;;37.10;18.55;;;;;;;2.12;80.53;96762.06;5034499;28;20053;-77
2021/03/05 06:24:28;;;;;;;34.63;17.98;;;;;;;2.12;80.52;96764.66;5035238;28;20037;-77
2021/03/05 06:27:01;;;;;;;36.78;19.35;;;;;;;2.09;80.67;96764.97;5034909;28;20473;-77
2021/03/05 06:29:48;;;;;;;37.75;18.67;;;;;;;2.11;80.98;96765.63;5034467;28;20034;-77
2021/03/05 06:32:16;;;;;;;35.28;19.05;;;;;;;2.10;80.63;96769.16;5034830;28;20041;-77
2021/03/05 06:34:55;;;;;;;35.47;18.23;;;;;;;2.10;81.07;96779.50;5033638;28;20072;-77
2021/03/05 06:37:24;;;;;;;36.60;18.05;;;;;;;2.11;80.70;96781.94;5034910;28;20405;-76
2021/03/05 06:40:03;;;;;;;42.90;19.85;;;;;;;2.14;80.74;96784.25;5034353;28;20505;-77
2021/03/05 06:42:47;;;;;;;35.30;17.65;;;;;;;2.14;80.93;96788.59;5034469;28;20042;-76
2021/03/05 06:45:14;;;;;;;41.83;19.40;;;;;;;2.14;80.47;96789.41;5020212;28;20033;-76
2021/03/05 06:47:59;;;;;;;37.17;18.70;;;;;;;2.14;80.95;96799.75;5034030;28;20037;-77
2021/03/05 06:50:25;;;;;;;40.67;19.52;;;;;;;2.17;80.77;96801.22;5034489;28;20378;-76
2021/03/05 06:52:51;;;;;;;35.83;17.92;;;;;;;2.16;80.65;96797.00;5033953;28;20512;-77
2021/03/05 06:55:18;;;;;;;42.08;18.73;;;;;;;2.16;80.43;96800.41;5016336;28;20049;-77
2021/03/05 06:57:44;;;;;;;37.35;17.45;;;;;;;2.12;80.25;96806.03;5034151;28;20041;-76
2021/03/05 07:00:23;;;;;;;37.45;18.30;;;;;;;2.12;80.67;96814.63;5034137;28;20044;-77
2021/03/05 07:02:50;;;;;;;38.70;18.10;;;;;;;2.08;80.49;96809.91;5033914;28;20037;-77
2021/03/05 07:05:17;;;;;;;38.50;18.52;;;;;;;2.07;80.71;96806.50;5032856;28;20057;-77
2021/03/05 07:07:49;;;;;;;40.72;18.63;;;;;;;2.09;80.73;96817.50;5033863;28;20065;-77
2021/03/05 07:10:16;;;;;;;41.45;19.83;;;;;;;2.13;80.72;96820.59;5033622;28;20041;-77
2021/03/05 07:13:02;;;;;;;37.80;18.08;;;;;;;2.15;80.58;96823.84;5034108;28;20367;-77
2021/03/05 07:15:30;;;;;;;36.58;16.92;;;;;;;2.15;80.52;96827.25;5033947;28;20033;-77
2021/03/05 07:17:58;;;;;;;33.97;16.77;;;;;;;2.19;80.30;96832.94;5033567;28;20131;-77
2021/03/05 07:20:25;;;;;;;32.92;16.27;;;;;;;2.18;80.24;96834.72;5034069;28;20033;-76
2021/03/05 07:22:56;;;;;;;37.03;17.95;;;;;;;2.17;80.16;96838.25;5033944;28;20048;-77
2021/03/05 07:25:23;;;;;;;38.60;18.05;;;;;;;2.19;80.46;96830.34;5033639;28;20500;-77
2021/03/05 07:27:51;;;;;;;36.65;17.30;;;;;;;2.22;80.59;96843.75;5033547;28;20060;-76
2021/03/05 07:30:19;;;;;;;35.97;17.80;;;;;;;2.27;80.45;96840.72;5015812;28;20426;-77
2021/03/05 07:32:50;;;;;;;40.65;19.48;;;;;;;2.30;80.33;96847.38;5033317;28;20044;-77
2021/03/05 07:35:27;;;;;;;39.13;19.38;;;;;;;2.31;80.21;96852.38;5033291;28;20057;-76
2021/03/05 07:37:56;;;;;;;36.20;17.92;;;;;;;2.36;80.51;96854.50;5033224;28;20050;-77
2021/03/05 07:40:22;;;;;;;37.53;18.83;;;;;;;2.39;80.20;96857.59;5033379;28;20037;-77
2021/03/05 07:42:49;;;;;;;32.50;17.58;;;;;;;2.42;80.33;96869.41;5033620;28;20037;-77
2021/03/05 07:45:16;;;;;;;36.30;18.52;;;;;;;2.42;80.00;96859.88;5032992;28;20466;-77
2021/03/05 07:47:45;;;;;;;34.95;17.60;;;;;;;2.42;80.16;96872.00;5033751;28;20040;-77
2021/03/05 07:50:14;;;;;;;40.33;18.60;;;;;;;2.42;80.10;96869.41;5033465;28;20037;-76
2021/03/05 07:52:41;;;;;;;35.47;17.85;;;;;;;2.38;80.06;96873.28;5033440;28;20040;-76
2021/03/05 07:55:08;;;;;;;33.65;16.77;;;;;;;2.33;80.05;96873.75;5033264;28;20045;-77
2021/03/05 07:57:34;;;;;;;39.03;18.50;;;;;;;2.32;79.84;96877.28;5023209;28;20048;-77
2021/03/05 08:00:02;;;;;;;38.03;17.00;;;;;;;2.30;79.96;96871.47;5033038;28;20033;-76
2021/03/05 08:02:51;;;;;;;39.03;17.55;;;;;;;2.32;80.08;96879.06;5032853;28;20049;-76
2021/03/05 08:05:50;;;;;;;41.90;19.20;;;;;;;2.31;80.46;96880.03;5032900;28;20040;-76
2021/03/05 08:08:25;;;;;;;39.53;19.40;;;;;;;2.32;80.22;96884.25;4983793;28;20054;-77
2021/03/05 08:10:53;;;;;;;39.92;18.73;;;;;;;2.34;80.21;96884.91;5021687;28;20041;-77
2021/03/05 08:16:29;;;;;;;36.53;18.52;;;;;;;2.33;80.45;96894.47;5033087;28;20041;-76
2021/03/05 08:19:05;;;;;;;43.80;19.30;;;;;;;2.34;80.24;96892.66;5020448;28;20037;-77
2021/03/05 08:22:01;;;;;;;36.70;18.65;;;;;;;2.36;80.28;96895.91;5033127;28;20055;-76
2021/03/05 08:24:39;;;;;;;44.50;19.58;;;;;;;2.40;80.42;96899.81;5024996;28;20049;-76
2021/03/05 08:27:35;;;;;;;41.50;19.42;;;;;;;2.42;80.41;96903.06;5036781;28;20033;-76
2021/03/05 08:30:12;;;;;;;38.67;18.30;;;;;;;2.38;80.28;96912.09;5037065;28;20041;-76
2021/03/05 08:32:48;;;;;;;35.72;18.13;;;;;;;2.38;80.30;96915.50;5025726;28;20041;-76
2021/03/05 08:35:17;;;;;;;39.72;18.48;;;;;;;2.40;79.94;96916.16;5036552;28;21130;-76
2021/03/05 08:37:46;;;;;;;39.13;18.95;;;;;;;2.46;80.25;96911.31;5037300;28;20042;-76
2021/03/05 08:40:13;;;;;;;41.50;17.70;;;;;;;2.51;80.27;96911.66;5036334;28;20045;-77
2021/03/05 08:43:16;;;;;;;37.33;18.63;;;;;;;2.56;80.18;96918.00;5036482;28;20375;-76
2021/03/05 08:45:48;;;;;;;38.53;18.05;;;;;;;2.57;79.90;96919.63;5030830;28;20045;-76
2021/03/05 08:48:45;;;;;;;36.80;17.30;;;;;;;2.57;80.16;96924.81;5036491;28;20037;-76
2021/03/05 08:51:13;;;;;;;35.92;18.27;;;;;;;2.60;80.19;96921.09;5013001;28;20049;-77
2021/03/05 08:53:45;;;;;;;33.72;17.02;;;;;;;2.64;79.93;96922.41;5036363;28;20037;-76
2021/03/05 08:56:18;;;;;;;39.67;17.95;;;;;;;2.73;79.98;96923.22;5036575;28;20137;-76
2021/03/05 08:58:44;;;;;;;35.45;17.77;;;;;;;2.80;79.96;96932.81;5036131;28;20049;-76
2021/03/05 09:01:46;;;;;;;36.50;17.40;;;;;;;2.87;79.59;96938.19;5034772;28;20056;-77
2021/03/05 09:04:19;;;;;;;33.22;17.58;;;;;;;2.87;79.46;96935.59;4950018;28;20035;-77
2021/03/05 09:06:56;;;;;;;41.10;18.13;;;;;;;2.84;79.24;96933.31;5020991;28;20474;-77
2021/03/05 09:09:25;;;;;;;36.75;17.80;;;;;;;2.80;79.17;96937.19;5036056;28;20458;-76
2021/03/05 09:12:15;;;;;;;41.42;17.70;;;;;;;2.77;79.03;96940.09;5036009;28;20033;-76
2021/03/05 09:14:43;;;;;;;32.92;16.65;;;;;;;2.73;79.21;96942.19;5035841;28;20033;-77
2021/03/05 09:17:12;;;;;;;34.78;17.63;;;;;;;2.72;79.26;96937.97;5034640;28;20048;-77
2021/03/05 09:19:41;;;;;;;36.10;17.95;;;;;;;2.73;79.40;96946.53;5036090;28;20037;-76
2021/03/05 09:22:26;;;;;;;34.80;17.63;;;;;;;2.78;79.65;96952.09;5035456;28;20410;-76
2021/03/05 09:25:18;;;;;;;34.65;15.90;;;;;;;2.79;79.45;96946.75;5034266;28;20050;-76
2021/03/05 09:28:02;;;;;;;34.20;16.83;;;;;;;2.77;79.34;96950.44;5032525;28;20037;-77
2021/03/05 09:30:55;;;;;;;37.83;16.33;;;;;;;2.82;79.69;96953.41;5035836;28;20397;-76
2021/03/05 09:33:43;;;;;;;31.38;15.43;;;;;;;2.76;79.39;96954.81;5029915;28;20056;-77
2021/03/05 09:36:12;;;;;;;36.88;17.08;;;;;;;2.74;79.43;96967.13;5035799;28;20049;-77
2021/03/05 09:38:45;;;;;;;32.13;16.02;;;;;;;2.76;79.50;96962.59;5017142;28;20084;-77
2021/03/05 09:41:16;;;;;;;33.07;15.47;;;;;;;2.79;79.85;96964.88;5035738;28;20041;-76
2021/03/05 09:43:43;;;;;;;32.58;14.98;;;;;;;2.83;79.63;96967.94;5035560;28;20371;-77
2021/03/05 09:46:24;;;;;;;32.83;15.77;;;;;;;2.88;79.53;96973.50;5035084;28;20359;-77
2021/03/05 09:48:52;;;;;;;33.50;15.32;;;;;;;2.86;79.55;96970.25;5035349;28;20033;-77
2021/03/05 09:51:20;;;;;;;36.50;15.65;;;;;;;2.87;79.21;96969.25;5035245;28;20042;-76
2021/03/05 09:53:56;;;;;;;27.98;14.10;;;;;;;2.93;79.37;96970.44;5035507;28;20470;-76
2021/03/05 09:56:25;;;;;;;32.45;14.48;;;;;;;2.95;78.82;96977.06;5024075;28;20041;-77
2021/03/05 09:59:00;;;;;;;29.38;14.90;;;;;;;2.97;79.02;96977.72;5035282;28;20037;-77
2021/03/05 10:01:28;;;;;;;28.67;14.70;;;;;;;3.00;78.93;96987.78;5035161;28;20030;-76
2021/03/05 10:03:57;;;;;;;33.38;15.00;;;;;;;2.98;78.72;96991.47;5017434;28;20034;-77
2021/03/05 10:06:24;;;;;;;33.55;14.88;;;;;;;2.94;78.78;96982.41;5034819;28;20045;-77
2021/03/05 10:08:59;;;;;;;31.35;14.70;;;;;;;2.90;78.53;96997.47;5035078;28;20044;-77
2021/03/05 10:11:42;;;;;;;29.95;14.20;;;;;;;2.87;78.39;96994.38;5034839;28;20028;-77
2021/03/05 10:14:10;;;;;;;30.60;14.43;;;;;;;2.77;78.36;96995.31;5034862;28;20059;-77
2021/03/05 10:16:41;;;;;;;30.67;15.02;;;;;;;2.78;78.85;97003.88;5034392;28;20064;-77
2021/03/05 10:19:10;;;;;;;29.50;13.88;;;;;;;2.80;78.72;96999.34;5022702;28;20041;-77
2021/03/05 10:21:41;;;;;;;27.55;13.65;;;;;;;2.83;78.70;96999.88;5033591;28;20044;-77
2021/03/05 10:24:16;;;;;;;32.60;15.38;;;;;;;2.93;78.44;97001.50;5026690;28;20390;-77
2021/03/05 10:29:45;;;;;;;26.83;13.80;;;;;;;3.03;78.38;97005.59;5034645;28;20482;-77
2021/03/05 10:32:37;;;;;;;29.63;14.15;;;;;;;3.03;77.56;96997.03;5020454;28;20377;-77
2021/03/05 10:35:16;;;;;;;25.63;12.57;;;;;;;3.04;78.12;97012.44;5034204;28;20410;-77
2021/03/05 10:37:46;;;;;;;29.23;13.52;;;;;;;3.13;78.16;97007.25;5034621;28;20052;-77
2021/03/05 10:40:14;;;;;;;27.48;13.82;;;;;;;3.17;78.05;97006.78;5034019;28;20048;-77
2021/03/05 10:42:41;;;;;;;24.95;13.02;;;;;;;3.24;77.74;97010.38;5034462;28;20036;-77
2021/03/05 10:45:09;;;;;;;26.90;13.23;;;;;;;3.30;77.84;97015.88;5033618;28;20386;-77
2021/03/05 10:47:36;;;;;;;24.10;12.63;;;;;;;3.31;77.58;97015.72;5034266;28;20048;-77
2021/03/05 10:50:03;;;;;;;27.05;13.15;;;;;;;3.29;77.04;97017.66;5034294;28;20037;-77
2021/03/05 10:52:29;;;;;;;26.00;12.75;;;;;;;3.29;77.26;97012.47;5019033;28;20033;-76
2021/03/05 10:54:56;;;;;;;30.85;14.23;;;;;;;3.33;77.15;97018.16;5033922;28;20041;-77
2021/03/05 10:57:22;;;;;;;25.25;11.80;;;;;;;3.38;77.14;97021.09;5033551;28;20052;-77
2021/03/05 10:59:50;;;;;;;28.75;12.10;;;;;;;3.38;76.82;97026.28;5016460;28;20465;-77
2021/03/05 11:02:17;;;;;;;25.40;11.57;;;;;;;3.40;76.91;97024.34;5034057;28;20040;-77
2021/03/05 11:04:43;;;;;;;26.55;12.90;;;;;;;3.40;76.56;97032.13;5033667;28;20119;-77
2021/03/05 11:07:11;;;;;;;26.15;13.07;;;;;;;3.44;76.64;97033.41;5033809;28;20048;-77
2021/03/05 11:09:37;;;;;;;26.10;13.18;;;;;;;3.44;76.55;97033.41;5034388;28;20040;-77
2021/03/05 11:12:04;;;;;;;28.23;13.48;;;;;;;3.43;76.57;97035.22;5033477;28;20060;-77
2021/03/05 11:14:31;;;;;;;28.77;13.00;;;;;;;3.37;76.42;97030.66;5033959;28;20040;-77
2021/03/05 11:16:57;;;;;;;24.17;12.80;;;;;;;3.36;76.24;97038.59;5033691;28;20037;-77
2021/03/05 11:19:26;;;;;;;23.65;12.55;;;;;;;3.35;76.48;97045.56;5033723;28;20037;-77
2021/03/05 11:21:53;;;;;;;25.48;12.40;;;;;;;3.35;76.08;97035.19;5018186;28;20049;-77
2021/03/05 11:24:19;;;;;;;21.75;12.23;;;;;;;3.32;75.88;97034.69;5033599;28;20041;-77
2021/03/05 11:26:46;;;;;;;24.35;11.30;;;;;;;3.32;76.19;97040.69;5033609;28;20037;-77
2021/03/05 11:29:14;;;;;;;21.98;12.15;;;;;;;3.34;76.00;97040.53;5033538;28;20052;-77
2021/03/05 11:31:41;;;;;;;21.38;12.27;;;;;;;3.32;75.93;97043.28;5033384;28;20042;-77
2021/03/05 11:34:07;;;;;;;22.20;11.95;;;;;;;3.27;76.02;97050.72;5033306;28;20478;-77
2021/03/05 11:36:33;;;;;;;28.88;13.20;;;;;;;3.28;76.20;97051.53;5033081;28;20057;-77
2021/03/05 11:39:00;;;;;;;30.75;12.68;;;;;;;3.28;76.15;97056.72;5033300;28;20049;-77
2021/03/05 11:41:26;;;;;;;27.70;12.50;;;;;;;3.27;76.37;97050.72;5033207;28;20047;-77
2021/03/05 11:43:53;;;;;;;24.55;12.70;;;;;;;3.26;75.78;97049.09;5033138;28;20045;-77
2021/03/05 11:46:21;;;;;;;29.63;12.68;;;;;;;3.23;75.62;97060.59;5033266;28;20049;-77